LEXJ

Santander Airport

Santander, Spain
TAF LEXJ 212000Z 2121/2221 24009KT 9999 SCT030 BKN045 TX11/2215Z TN07/2206Z TEMPO 2121/2212 25015G25KT BECMG 2209/2212 29015G27KT TEMPO 2206/2215 RA PROB40 TEMPO 2209/2221 3000 RA BKN014
Issued Valid From Valid To
Jan-21 @ 20:00 UTC
(5 hours ago)
Jan-21 @ 21:00 UTC
(4 hours ago)
Jan-22 @ 21:00 UTC
(in 20 hours)
Jan-21 @ 21:00 to Jan-22 @ 09:00
TAF LEXJ 212000Z 2121/2221 24009KT 9999 SCT030 BKN045 TX11/2215Z TN07/2206Z
Wind Visibility Clouds
240° at 9 knots 10,000+ meters
  • Scattered at 3,000' AGL
  • Broken at 4,500' AGL
Temporary Jan-21 @ 21:00 to Jan-22 @ 12:00
TEMPO 2121/2212 25015G25KT
Wind
250° at 15 knots
 Gusting to 25 knots
Temporary Jan-22 @ 06:00 to Jan-22 @ 15:00
TEMPO 2206/2215 RA
Conditions
  • Rain
Temporary  (Probability 40%) Jan-22 @ 09:00 to Jan-22 @ 21:00
PROB40 TEMPO 2209/2221 3000 RA BKN014
Visibility Clouds Conditions
2,993 meters
  • Broken at 1,400' AGL
  • Rain
Becoming Jan-22 @ 09:00 to Jan-22 @ 21:00
BECMG 2209/2212 29015G27KT
Wind Visibility Clouds
290° at 15 knots
 Gusting to 27 knots
10,000+ meters
  • Scattered at 3,000' AGL
  • Broken at 4,500' AGL
TAF LEXJ 212000Z 2121/2221 24009KT 9999 SCT030 BKN045 TX11/2215Z TN07/2206Z TEMPO 2121/2212 25015G25KT BECMG 2209/2212 29015G27KT TEMPO 2206/2215 RA PROB40 TEMPO 2209/2221 3000 RA BKN014
Issued Jan-21 @ 20:00 UTC
(5 hours ago)
Valid From Jan-21 @ 21:00 UTC
(4 hours ago)
Valid To Jan-22 @ 21:00 UTC
(in 20 hours)
Jan-21 @ 21:00 - Jan-22 @ 09:00
Wind Visibility
240° at 9 knots 10,000+ meters
Clouds
  • Scattered at 3,000' AGL
  • Broken at 4,500' AGL
Temporary Jan-21 @ 21:00 - Jan-22 @ 12:00
Wind
250° at 15 knots
 Gusting to 25 knots
Temporary Jan-22 @ 06:00 - Jan-22 @ 15:00
Conditions
  • Rain
Probability 40% Temporary Jan-22 @ 09:00 - Jan-22 @ 21:00
Clouds
  • Broken at 1,400' AGL
Conditions
  • Rain
Becoming Jan-22 @ 09:00 - Jan-22 @ 21:00
Wind Visibility
290° at 15 knots
 Gusting to 27 knots
10,000+ meters
Clouds
  • Scattered at 3,000' AGL
  • Broken at 4,500' AGL